createdAt,value
2023-03-01T00:03:17.814Z,22.37
2023-03-01T00:08:19.210Z,22.38
2023-03-01T00:13:20.583Z,22.37
2023-03-01T00:18:24.587Z,22.26
2023-03-01T00:23:26.015Z,22.34
2023-03-01T00:28:27.388Z,22.38
2023-03-01T00:33:28.760Z,22.39
2023-03-01T00:38:30.183Z,22.30
2023-03-01T00:43:31.780Z,22.34
2023-03-01T00:48:33.331Z,22.36
2023-03-01T00:53:34.845Z,22.37
2023-03-01T00:58:36.367Z,22.32
2023-03-01T01:03:37.743Z,22.32
2023-03-01T01:08:39.130Z,22.37
2023-03-01T01:13:40.615Z,22.41
2023-03-01T01:18:41.989Z,22.34
2023-03-01T01:23:43.918Z,22.24
2023-03-01T01:28:45.462Z,22.33
2023-03-01T01:33:46.841Z,22.36
2023-03-01T01:38:48.237Z,22.31
2023-03-01T01:44:10.697Z,22.26
2023-03-01T01:49:33.231Z,22.29
2023-03-01T01:54:46.481Z,22.39
2023-03-01T01:59:51.039Z,22.31
2023-03-01T02:04:54.906Z,22.26
2023-03-01T02:09:56.286Z,22.29
2023-03-01T02:14:57.653Z,22.36
2023-03-01T02:20:21.490Z,22.34
2023-03-01T02:25:36.797Z,22.29
2023-03-01T02:30:38.182Z,22.29
2023-03-01T02:35:39.607Z,22.32
2023-03-01T02:40:41.045Z,22.34
2023-03-01T02:45:50.502Z,22.25
2023-03-01T02:51:09.015Z,22.23
2023-03-01T02:56:13.821Z,22.32
2023-03-01T03:01:16.776Z,22.34
2023-03-01T03:06:18.188Z,22.29
2023-03-01T03:11:19.666Z,22.21
2023-03-01T03:16:21.259Z,22.32
2023-03-01T03:21:22.710Z,22.33
2023-03-01T03:26:24.198Z,22.29
2023-03-01T03:31:25.767Z,22.23
2023-03-01T03:36:27.181Z,22.29
2023-03-01T03:41:28.593Z,22.34
2023-03-01T03:46:29.955Z,22.34
2023-03-01T03:51:31.330Z,22.23
2023-03-01T03:56:33.148Z,22.24
2023-03-01T04:01:34.733Z,22.31
2023-03-01T04:06:36.122Z,22.35
2023-03-01T04:11:39.476Z,22.29
2023-03-01T04:16:40.918Z,22.30
2023-03-01T04:21:42.294Z,22.32
2023-03-01T04:26:44.202Z,22.34
2023-03-01T04:31:45.704Z,22.21
2023-03-01T04:36:47.200Z,22.23
2023-03-01T04:41:48.634Z,22.27
2023-03-01T04:46:50.993Z,22.32
2023-03-01T04:51:52.361Z,22.27
2023-03-01T04:56:53.732Z,22.26
2023-03-01T05:01:57.345Z,22.28
2023-03-01T05:06:59.611Z,22.33
2023-03-01T05:12:01.007Z,22.30
2023-03-01T05:17:04.755Z,22.24
2023-03-01T05:22:06.149Z,22.29
2023-03-01T05:27:07.575Z,22.35
2023-03-01T05:32:10.179Z,22.33
2023-03-01T05:37:11.583Z,22.28
2023-03-01T05:42:12.990Z,22.32
2023-03-01T05:47:14.440Z,22.36
2023-03-01T05:52:15.813Z,22.38
2023-03-01T05:57:17.228Z,22.32
2023-03-01T06:02:19.398Z,22.32
2023-03-01T06:07:20.767Z,22.36
2023-03-01T06:12:22.163Z,22.41
2023-03-01T06:17:23.562Z,22.33
2023-03-01T06:22:25.244Z,22.26
2023-03-01T06:27:26.655Z,22.35
2023-03-01T06:32:28.075Z,22.39
2023-03-01T06:37:29.510Z,22.33
2023-03-01T06:42:30.891Z,22.28
2023-03-01T06:47:33.911Z,22.32
2023-03-01T06:52:35.476Z,22.38
2023-03-01T06:57:36.900Z,22.49
2023-03-01T07:02:38.342Z,22.42
2023-03-01T07:07:39.739Z,22.54
2023-03-01T07:12:42.113Z,22.69
2023-03-01T07:17:45.344Z,22.72
2023-03-01T07:22:46.724Z,22.67
2023-03-01T07:27:54.214Z,22.70
2023-03-01T07:32:56.351Z,22.81
2023-03-01T07:37:57.803Z,22.88
2023-03-01T07:42:59.294Z,22.71
2023-03-01T07:48:01.040Z,22.75
2023-03-01T07:53:03.462Z,22.83
2023-03-01T07:58:05.284Z,22.92
2023-03-01T08:03:06.677Z,22.81
2023-03-01T08:08:08.087Z,22.69
2023-03-01T08:13:09.467Z,22.83
2023-03-01T08:18:10.863Z,22.87
2023-03-01T08:23:12.229Z,22.92
2023-03-01T08:28:13.884Z,22.79
2023-03-01T08:33:15.453Z,22.79
2023-03-01T08:38:16.843Z,22.93
2023-03-01T08:43:18.516Z,23.03
2023-03-01T08:48:19.939Z,22.94
2023-03-01T08:53:21.448Z,22.85
2023-03-01T08:58:22.823Z,23.00
2023-03-01T09:03:25.212Z,23.06
2023-03-01T09:08:26.594Z,23.00
2023-03-01T09:13:31.830Z,22.84
2023-03-01T09:18:33.254Z,22.99
2023-03-01T09:23:39.725Z,23.09
2023-03-01T09:28:43.880Z,23.08
2023-03-01T09:33:47.352Z,22.99
2023-03-01T09:38:49.292Z,23.01
2023-03-01T09:43:56.756Z,23.23
2023-03-01T09:49:05.523Z,23.33
2023-03-01T09:54:07.008Z,23.20
2023-03-01T09:59:14.212Z,23.04
2023-03-01T10:04:28.171Z,23.14
2023-03-01T10:09:31.158Z,23.21
2023-03-01T10:14:52.027Z,23.10
2023-03-01T10:19:53.411Z,22.90
2023-03-01T10:24:55.040Z,22.94
2023-03-01T10:30:14.205Z,23.04
2023-03-01T10:35:26.650Z,23.16
2023-03-01T10:40:28.040Z,23.06
2023-03-01T10:45:36.619Z,23.09
2023-03-01T10:50:39.543Z,23.07
2023-03-01T10:55:42.178Z,23.12
2023-03-01T11:00:54.544Z,23.15
2023-03-01T11:06:04.702Z,22.89
2023-03-01T11:11:33.187Z,22.91
2023-03-01T11:16:36.802Z,22.98
2023-03-01T11:21:58.043Z,22.99
2023-03-01T11:27:00.731Z,22.94
2023-03-01T11:32:03.408Z,22.89
2023-03-01T11:37:10.980Z,22.95
2023-03-01T11:42:19.637Z,23.04
2023-03-01T11:47:33.788Z,23.04
2023-03-01T11:52:57.034Z,22.92
2023-03-01T11:58:06.384Z,22.90
2023-03-01T12:03:22.751Z,22.96
2023-03-01T12:08:43.568Z,23.02
2023-03-01T12:14:20.306Z,22.96
2023-03-01T12:19:46.492Z,22.84
2023-03-01T12:25:01.582Z,22.92
2023-03-01T12:30:21.779Z,23.01
2023-03-01T12:35:53.916Z,23.02
2023-03-01T12:41:21.283Z,22.94
2023-03-01T12:46:41.336Z,22.92
2023-03-01T12:51:45.244Z,23.04
2023-03-01T12:56:52.909Z,23.06
2023-03-01T13:02:17.042Z,23.00
2023-03-01T13:07:30.383Z,22.84
2023-03-01T13:12:50.960Z,23.00
2023-03-01T13:18:28.470Z,23.16
2023-03-01T13:23:34.447Z,23.20
2023-03-01T13:28:39.379Z,22.96
2023-03-01T13:33:44.221Z,23.05
2023-03-01T13:38:48.157Z,23.06
2023-03-01T13:43:49.530Z,23.16
2023-03-01T13:48:52.345Z,23.09
2023-03-01T13:53:54.225Z,22.92
2023-03-01T13:59:14.957Z,22.97
2023-03-01T14:04:24.496Z,23.05
2023-03-01T14:09:28.226Z,23.14
2023-03-01T14:14:39.811Z,23.19
2023-03-01T14:19:45.688Z,23.11
2023-03-01T14:25:30.741Z,23.25
2023-03-01T14:30:39.427Z,23.29
2023-03-01T14:35:41.284Z,23.27
2023-03-01T14:40:42.727Z,23.04
2023-03-01T14:45:47.882Z,22.84
2023-03-01T14:50:49.288Z,22.85
2023-03-01T14:55:55.568Z,22.94
2023-03-01T15:01:06.017Z,22.90
2023-03-01T15:06:07.957Z,22.89
2023-03-01T15:11:29.983Z,22.82
2023-03-01T15:16:32.542Z,22.88
2023-03-01T15:21:35.390Z,23.00
2023-03-01T15:26:43.511Z,22.98
2023-03-01T15:31:58.685Z,22.91
2023-03-01T15:37:02.075Z,22.88
2023-03-01T15:42:08.233Z,23.04
2023-03-01T15:47:23.910Z,23.12
2023-03-01T15:52:32.129Z,23.07
2023-03-01T15:57:33.517Z,23.01
2023-03-01T16:02:34.937Z,23.05
2023-03-01T16:07:40.516Z,23.17
2023-03-01T16:12:41.930Z,23.24
2023-03-01T16:17:43.298Z,23.16
2023-03-01T16:22:44.979Z,23.05
2023-03-01T16:27:47.259Z,23.15
2023-03-01T16:32:49.673Z,23.20
2023-03-01T16:37:53.428Z,23.28
2023-03-01T16:42:56.517Z,23.16
2023-03-01T16:47:57.915Z,23.06
2023-03-01T16:52:59.286Z,23.03
2023-03-01T16:58:00.672Z,23.16
2023-03-01T17:03:02.078Z,23.19
2023-03-01T17:08:03.481Z,23.11
2023-03-01T17:13:04.978Z,23.02
2023-03-01T17:18:06.358Z,23.07
2023-03-01T17:23:07.767Z,23.16
2023-03-01T17:28:09.588Z,23.17
2023-03-01T17:33:11.683Z,23.16
2023-03-01T17:38:16.459Z,23.07
2023-03-01T17:43:17.975Z,23.08
2023-03-01T17:48:19.370Z,23.21
2023-03-01T17:53:20.770Z,23.19
2023-03-01T17:58:22.761Z,23.15
2023-03-01T18:03:24.160Z,23.04
2023-03-01T18:08:25.527Z,23.09
2023-03-01T18:13:26.955Z,23.21
2023-03-01T18:18:28.484Z,23.25
2023-03-01T18:23:30.652Z,23.24
2023-03-01T18:28:32.476Z,23.08
2023-03-01T18:33:34.008Z,23.03
2023-03-01T18:38:35.375Z,23.01
2023-03-01T18:43:36.784Z,22.97
2023-03-01T18:48:38.462Z,22.79
2023-03-01T18:53:39.852Z,22.60
2023-03-01T18:58:42.663Z,22.69
2023-03-01T19:03:44.054Z,22.70
2023-03-01T19:08:45.963Z,22.64
2023-03-01T19:13:47.650Z,22.53
2023-03-01T19:18:51.249Z,22.56
2023-03-01T19:23:52.891Z,22.63
2023-03-01T19:28:54.877Z,22.64
2023-03-01T19:34:09.947Z,22.57
2023-03-01T19:39:13.285Z,22.47
2023-03-01T19:44:14.757Z,22.52
2023-03-01T19:49:16.130Z,22.61
2023-03-01T19:54:20.174Z,22.56
2023-03-01T19:59:24.162Z,22.44
2023-03-01T20:04:25.563Z,22.48
2023-03-01T20:09:26.942Z,22.58
2023-03-01T20:14:28.324Z,22.56
2023-03-01T20:19:29.767Z,22.50
2023-03-01T20:24:34.072Z,22.40
2023-03-01T20:29:35.531Z,22.49
2023-03-01T20:34:37.052Z,22.56
2023-03-01T20:39:38.433Z,22.56
2023-03-01T20:44:44.146Z,22.45
2023-03-01T20:49:45.519Z,22.51
2023-03-01T20:54:46.940Z,22.56
2023-03-01T20:59:48.307Z,22.54
2023-03-01T21:04:49.670Z,22.42
2023-03-01T21:09:51.067Z,22.41
2023-03-01T21:14:52.435Z,22.52
2023-03-01T21:19:53.813Z,22.52
2023-03-01T21:24:55.201Z,22.46
2023-03-01T21:29:56.729Z,22.38
2023-03-01T21:34:59.330Z,22.47
2023-03-01T21:40:00.717Z,22.51
2023-03-01T21:45:02.591Z,22.49
2023-03-01T21:50:04.642Z,22.40
2023-03-01T21:55:07.000Z,22.44
2023-03-01T22:00:12.772Z,22.52
2023-03-01T22:05:14.016Z,22.49
2023-03-01T22:10:15.688Z,22.39
2023-03-01T22:15:17.115Z,22.45
2023-03-01T22:20:19.777Z,22.50
2023-03-01T22:25:21.177Z,22.51
2023-03-01T22:30:22.745Z,22.39
2023-03-01T22:35:24.183Z,22.41
2023-03-01T22:40:25.572Z,22.47
2023-03-01T22:45:32.111Z,22.51
2023-03-01T22:50:33.508Z,22.46
2023-03-01T22:55:34.908Z,22.36
2023-03-01T23:00:36.280Z,22.43
2023-03-01T23:05:37.652Z,22.47
2023-03-01T23:10:41.865Z,22.49
2023-03-01T23:15:44.679Z,22.32
2023-03-01T23:20:46.620Z,22.39
2023-03-01T23:25:55.228Z,22.46
2023-03-01T23:31:05.260Z,22.45
2023-03-01T23:36:07.615Z,22.39
2023-03-01T23:41:12.663Z,22.42
2023-03-01T23:46:14.863Z,22.48
2023-03-01T23:51:17.550Z,22.50
2023-03-01T23:56:19.028Z,22.41
